Anza Borrego Desert Research Center, California Weather observations

Data are for 10 minute period ending at time listed.
 Day   Time   Solar   Ave.   Ave.  Ave.  Vector  Max.   Baro.   Total    
  of    of     Rad.   Air    Rel.  Wind   Wind   Wind  Press.  Precip.   
Year   Day            Temp.  Hum.  Speed  Dir.   Gust                    
2016   (PST)  Kw/m2    F      %     mph   deg.    mph    mb.     in.     
-------------------------------------------------------------------------
 150   16:00   0.52   89.8    15    6.9   103    11.6   979.1    0.00 
 150   16:10   0.27   89.4    15    6.5    93    11.6   978.9    0.00 
 150   16:20   0.20   87.6    16    4.2   110    10.0   978.8    0.00 
 150   16:30   0.18   88.8    16    5.8   126    10.0   978.6    0.00 
 150   16:40   0.06   87.2    16    4.9   103    10.2   978.5    0.00 
 150   16:50   0.15   87.5    16    4.9    96     7.9   978.5    0.00 
 150   17:00   0.07   87.5    16    3.9   129     8.0   978.5    0.00 
 150   17:10   0.24   88.1    16    2.5    84     4.9   978.5    0.00 
 150   17:20   0.24   90.0    16    3.8    77     7.9   978.5    0.00 
 150   17:30   0.20   89.5    16    4.9    51     7.2   978.6    0.00 
 150   17:40   0.07   88.2    16    5.1    29     7.1   978.7    0.00 
 150   17:50   0.04   86.9    17    5.1    45     6.9   978.7    0.00 
 150   18:00   0.03   86.6    17    5.1    42     6.6   978.7    0.00 
 150   18:10   0.03   86.3    18    4.2    50     6.3   978.7    0.00 
 150   18:20   0.02   86.0    20    3.8    33     6.3   978.8    0.00 
 150   18:30   0.01   85.3    24    3.7    26     5.4   978.8    0.00 
 150   18:40   0.01   84.9    23    0.9   358     3.1   978.8    0.00 
 150   18:50   0.00   83.7    26    1.3   162     5.0   978.8    0.00 
 150   19:00   0.00   82.8    28    1.6   220     4.2   978.9    0.00 
 150   19:10   0.00   82.9    27    3.5   125     7.9   978.9    0.00 
 150   19:20   0.00   82.3    29    6.8   125     8.8   979.0    0.00 
 150   19:30   0.00   82.1    30    7.0   130     8.5   979.1    0.00 
 150   19:40   0.00   81.7    30    6.1   129     8.0   979.2    0.00 
 150   19:50   0.00   81.2    30    5.6   129     7.1   979.3    0.00 
 150   20:00   0.00   80.7    31    5.4   124     7.4   979.4    0.00 
 150   20:10   0.00   80.6    31    5.7   108     9.1   979.6    0.00 
 150   20:20   0.00   80.0    32    4.2   103     6.7   979.7    0.00 
 150   20:30   0.00   79.4    34    4.6    81     8.0   979.8    0.00 
 150   20:40   0.00   78.8    35    6.3    99     9.6   979.9    0.00 
 150   20:50   0.00   78.0    36    3.0   358     6.4   980.1    0.00 
 150   21:00   0.00   77.8    36    4.6    38     6.9   980.1    0.00 
 150   21:10   0.00   77.9    36    2.2   125     3.3   980.2    0.00 
 150   21:20   0.00   76.5    37    2.0   162     3.1   980.3    0.00 
 150   21:30   0.00   75.3    38    2.0   142     3.5   980.3    0.00 
 150   21:40   0.00   74.5    38    1.9   150     3.7   980.3    0.00 
 150   21:50   0.00   73.5    40    2.2   218     3.9   980.3    0.00 
 150   22:00   0.00   73.3    40    2.2   187     3.4   980.3    0.00 
 150   22:10   0.00   72.5    40    4.5   228     5.4   980.2    0.00 
 150   22:20   0.00   72.3    40    5.6   220     6.6   980.1    0.00 
 150   22:30   0.00   72.7    40    5.7   199     6.9   980.2    0.00 
 150   22:40   0.00   72.6    40    6.0   182     8.3   980.1    0.00 
 150   22:50   0.00   73.7    39    5.1   175     7.5   980.0    0.00 
 150   23:00   0.00   72.9    40    4.1   236     6.3   980.0    0.00 
 150   23:10   0.00   72.4    40    5.3   208     7.5   980.0    0.00 
 150   23:20   0.00   72.1    40    5.5   186     7.4   979.9    0.00 
 150   23:30   0.00   72.1    42    5.1   184     7.2   979.9    0.00 
 150   23:40   0.00   72.3    42    4.4   198     6.6   979.9    0.00 
 150   23:50   0.00   71.6    42    3.5   233     6.1   979.8    0.00 
 151    0:00   0.00   68.9    44    1.9   301     4.2   979.7    0.00 
 151    0:10   0.00   68.3    44    2.9   277     4.5   979.7    0.00 
 151    0:20   0.00   67.6    45    2.6   255     3.7   979.7    0.00 
 151    0:30   0.00   68.2    44    3.5   245     5.3   979.6    0.00 
 151    0:40   0.00   67.3    44    2.5   234     3.9   979.7    0.00 
 151    0:50   0.00   67.9    44    2.0   195     3.1   979.6    0.00 
 151    1:00   0.00   67.0    44    1.6   178     2.9   979.7    0.00 
 151    1:10   0.00   67.2    44    1.5   220     4.1   979.7    0.00 
 151    1:20   0.00   67.5    44    2.1   225     3.6   979.7    0.00 
 151    1:30   0.00   67.6    43    1.7   228     2.9   979.6    0.00 
 151    1:40   0.00   66.1    44    1.9   284     3.7   979.6    0.00 
 151    1:50   0.00   66.1    44    2.3   339     4.2   979.6    0.00 
 151    2:00   0.00   65.9    46    2.2    27     3.8   979.7    0.00 
 151    2:10   0.00   65.9    48    1.4   335     2.8   979.8    0.00 
 151    2:20   0.00   65.5    49    2.4   250     4.5   979.8    0.00 
 151    2:30   0.00   65.2    50    3.1   266     4.0   979.8    0.00 
 151    2:40   0.00   64.5    50    2.9   253     3.9   979.8    0.00 
 151    2:50   0.00   64.7    50    3.8   236     5.0   979.8    0.00 
 151    3:00   0.00   64.0    50    3.6   241     4.2   979.8    0.00 
 151    3:10   0.00   63.8    50    3.0   252     4.2   979.9    0.00 
 151    3:20   0.00   63.8    50    2.8   245     4.8   979.9    0.00 
 151    3:30   0.00   64.7    49    2.7   206     4.7   980.0    0.00 
 151    3:40   0.00   63.8    49    1.2   226     2.2   980.1    0.00 
 151    3:50   0.00   63.2    48    2.0   277     3.3   980.2    0.00 
 151    4:00   0.00   63.4    48    3.4   265     4.4   980.2    0.00 
 151    4:10   0.00   63.6    48    2.5   278     3.1   980.3    0.00 
 151    4:20   0.00   62.9    50    2.4   283     3.0   980.4    0.00 
 151    4:30   0.00   62.8    50    3.0   243     4.1   980.4    0.00 
 151    4:40   0.00   62.2    51    3.3   223     4.3   980.4    0.00 
 151    4:50   0.00   63.6    48    2.9   219     3.6   980.4    0.00 
 151    5:00   0.02   64.1    46    3.2   238     4.2   980.6    0.00 
 151    5:10   0.04   65.3    46    3.0   218     4.5   980.6    0.00 
 151    5:20   0.07   67.2    43    3.7   221     5.1   980.8    0.00 
 151    5:30   0.09   70.3    39    2.5   224     3.7   981.0    0.00 
 151    5:40   0.11   72.3    39    1.4    95     3.3   981.2    0.00 
 151    5:50   0.14   75.2    37    0.6    77     1.8   981.2    0.00 
 151    6:00   0.17   76.5    36    0.6     0     2.0   981.3    0.00 
 151    6:10   0.20   76.2    36    1.0   338     1.7   981.3    0.00 
 151    6:20   0.24   77.1    35    1.7    41     2.8   981.4    0.00 
 151    6:30   0.27   77.0    35    1.3    32     2.3   981.4    0.00 
 151    6:40   0.31   79.7    33    0.4   302     1.6   981.4    0.00 
 151    6:50   0.35   81.7    31    0.3   189     1.2   981.3    0.00 
 151    7:00   0.38   81.7    30    1.5    92     3.6   981.4    0.00 
 151    7:10   0.42   80.3    32    2.6    81     3.9   981.4    0.00 
 151    7:20   0.46   80.2    32    2.0    74     4.4   981.4    0.00 
 151    7:30   0.49   80.5    31    3.8    76     6.3   981.4    0.00 
 151    7:40   0.53   80.8    31    3.8   131     6.2   981.4    0.00 
 151    7:50   0.56   81.5    30    3.7   156     6.1   981.3    0.00 
 151    8:00   0.59   82.5    28    3.3   148     6.4   981.2    0.00 
 151    8:10   0.63   83.4    27    2.6   148     5.4   981.2    0.00 
 151    8:20   0.66   84.0    26    3.2   103     5.3   981.1    0.00 
 151    8:30   0.69   84.4    25    3.4    96     6.5   981.1    0.00 
 151    8:40   0.72   83.9    26    5.0    88     8.2   981.1    0.00 
 151    8:50   0.75   84.7    25    4.1    98     6.6   981.1    0.00 
 151    9:00   0.78   85.2    25    4.3   101     7.5   981.1    0.00 
 151    9:10   0.80   85.1    25    6.2   105    10.0   981.1    0.00 
 151    9:20   0.83   85.7    24    4.2    86     7.9   981.1    0.00 
 151    9:30   0.85   86.3    24    5.0    78     9.9   981.1    0.00 
 151    9:40   0.88   87.7    22    4.8   110     9.8   981.1    0.00 
 151    9:50   0.90   87.8    22    3.9   118     8.6   981.1    0.00 
 151   10:00   0.92   88.4    22    5.4   143    10.4   981.1    0.00 
 151   10:10   0.93   88.3    22    4.1   134     9.5   981.1    0.00 
 151   10:20   0.95   88.3    22    5.5    90     8.9   981.1    0.00 
 151   10:30   0.96   89.2    21    4.8   128     7.8   981.0    0.00 
 151   10:40   0.97   89.9    20    4.4   109     9.9   981.1    0.00 
 151   10:50   0.98   90.6    19    4.1    70     8.0   981.0    0.00 
 151   11:00   0.99   90.9    19    4.9   102    11.2   981.1    0.00 
 151   11:10   1.00   91.3    17    4.4   133    12.1   981.0    0.00 
 151   11:20   1.00   91.9    17    5.2   100    10.0   980.9    0.00 
 151   11:30   1.01   92.4    13    6.3   144    13.6   980.8    0.00 
 151   11:40   1.01   92.0    13    4.9   110    13.3   980.8    0.00 
 151   11:50   1.01   93.4    12    5.6   130    13.0   980.7    0.00 
 151   12:00   1.01   93.2    12    7.1   100    13.4   980.6    0.00 
 151   12:10   1.01   93.0    12    4.3   109     9.6   980.6    0.00 
 151   12:20   1.01   93.9    13    5.8    86    11.4   980.5    0.00 
 151   12:30   0.97   94.2    13    4.9    87    13.2   980.5    0.00 
 151   12:40   0.99   93.9    13    6.7   108    11.7   980.4    0.00 
 151   12:50   0.98   94.7    13    6.6   116    10.4   980.2    0.00 
 151   13:00   0.97   95.1    12    3.3   150     7.7   980.1    0.00 
 151   13:10   0.96   95.2    12    4.7   156    10.5   980.0    0.00 
 151   13:20   0.95   94.2    13    8.3   139    16.2   979.9    0.00 
 151   13:30   0.93   95.1    12    7.5   156    14.7   979.8    0.00 
 151   13:40   0.91   95.5    12    3.2   184     7.1   979.6    0.00 
 151   13:50   0.90   96.4    12    5.5   139     9.6   979.5    0.00 
 151   14:00   0.87   95.4    12    7.8   111    11.9   979.3    0.00 
 151   14:10   0.85   95.1    12    5.9    95     9.0   979.2    0.00 
 151   14:20   0.83   95.8    12    3.7    72     8.6   979.1    0.00 
 151   14:30   0.80   96.4    11    7.0    75    11.9   978.9    0.00 
 151   14:40   0.77   96.0    11    5.7    90    10.2   978.7    0.00 
 151   14:50   0.75   96.8    11    3.8    70    11.8   978.6    0.00 
 151   15:00   0.72   97.1    11    3.4    96     8.5   978.4    0.00 
 151   15:10   0.69   97.4    11    6.9   100    11.6   978.3    0.00 
 151   15:20   0.66   96.0    11    5.6    88     9.3   978.3    0.00 
 151   15:30   0.63   97.2    11    3.6    97     8.2   978.2    0.00 
 151   15:40   0.59   97.3    11    5.1   110    11.7   978.1    0.00 
 151   15:50   0.56   96.9    11    4.6   147     8.6   978.0    0.00 

Return to Anza Borrego Desert Research Center graphs page.


Western Regional Climate Center,wrcc@dri.edu